sensor_id;sensor_type;location;lat;lon;timestamp;pressure;altitude;pressure_sealevel;temperature;humidity
37132;BME280;23035;50.032;21.978;2023-11-21T00:02:34;65876.81;;;6.75;100.00
37132;BME280;23035;50.032;21.978;2023-11-21T00:07:39;65938.41;;;7.36;100.00
37132;BME280;23035;50.032;21.978;2023-11-21T00:12:44;65940.56;;;7.38;100.00
37132;BME280;23035;50.032;21.978;2023-11-21T00:17:52;65880.00;;;6.78;100.00
37132;BME280;23035;50.032;21.978;2023-11-21T00:22:57;65912.19;;;7.11;100.00
37132;BME280;23035;50.032;21.978;2023-11-21T00:28:02;65812.31;;;6.18;100.00
37132;BME280;23035;50.032;21.978;2023-11-21T00:33:08;65819.19;;;6.22;100.00
37132;BME280;23035;50.032;21.978;2023-11-21T00:38:14;65785.69;;;5.95;100.00
37132;BME280;23035;50.032;21.978;2023-11-21T00:43:18;65860.78;;;6.59;100.00
37132;BME280;23035;50.032;21.978;2023-11-21T00:48:24;65806.34;;;6.10;100.00
37132;BME280;23035;50.032;21.978;2023-11-21T00:53:28;65849.53;;;6.49;100.00
37132;BME280;23035;50.032;21.978;2023-11-21T00:58:33;65886.53;;;6.86;100.00
37132;BME280;23035;50.032;21.978;2023-11-21T01:03:40;65811.06;;;6.12;100.00
37132;BME280;23035;50.032;21.978;2023-11-21T01:08:44;65840.47;;;6.40;100.00
37132;BME280;23035;50.032;21.978;2023-11-21T01:13:49;65869.31;;;6.68;100.00
37132;BME280;23035;50.032;21.978;2023-11-21T01:18:55;65841.09;;;6.43;100.00
37132;BME280;23035;50.032;21.978;2023-11-21T01:24:00;65808.13;;;6.17;100.00
37132;BME280;23035;50.032;21.978;2023-11-21T01:29:05;65816.06;;;6.22;100.00
37132;BME280;23035;50.032;21.978;2023-11-21T01:34:11;65883.22;;;6.81;100.00
37132;BME280;23035;50.032;21.978;2023-11-21T01:39:17;65828.16;;;6.28;100.00
37132;BME280;23035;50.032;21.978;2023-11-21T01:44:26;65824.41;;;6.25;100.00
37132;BME280;23035;50.032;21.978;2023-11-21T01:49:34;65786.38;;;5.86;100.00
37132;BME280;23035;50.032;21.978;2023-11-21T01:54:40;65796.63;;;5.98;100.00
37132;BME280;23035;50.032;21.978;2023-11-21T01:59:45;65766.25;;;5.72;100.00
37132;BME280;23035;50.032;21.978;2023-11-21T02:04:52;65808.41;;;6.10;100.00
37132;BME280;23035;50.032;21.978;2023-11-21T02:09:58;65790.84;;;5.95;100.00
37132;BME280;23035;50.032;21.978;2023-11-21T02:15:04;65756.00;;;5.60;100.00
37132;BME280;23035;50.032;21.978;2023-11-21T02:20:14;65763.50;;;5.67;100.00
37132;BME280;23035;50.032;21.978;2023-11-21T02:25:20;65786.59;;;5.91;100.00
37132;BME280;23035;50.032;21.978;2023-11-21T02:30:24;65753.97;;;5.60;100.00
37132;BME280;23035;50.032;21.978;2023-11-21T02:35:30;65843.13;;;6.43;100.00
37132;BME280;23035;50.032;21.978;2023-11-21T02:40:37;65854.97;;;6.56;100.00
37132;BME280;23035;50.032;21.978;2023-11-21T02:45:41;65853.28;;;6.52;100.00
37132;BME280;23035;50.032;21.978;2023-11-21T02:50:46;65801.00;;;6.05;100.00
37132;BME280;23035;50.032;21.978;2023-11-21T02:55:52;65879.59;;;6.80;100.00
37132;BME280;23035;50.032;21.978;2023-11-21T03:00:56;65885.38;;;6.83;100.00
37132;BME280;23035;50.032;21.978;2023-11-21T03:06:02;65850.50;;;6.47;100.00
37132;BME280;23035;50.032;21.978;2023-11-21T03:11:08;65852.75;;;6.52;100.00
37132;BME280;23035;50.032;21.978;2023-11-21T03:16:15;65863.09;;;6.67;100.00
37132;BME280;23035;50.032;21.978;2023-11-21T03:21:20;65831.47;;;6.34;100.00
37132;BME280;23035;50.032;21.978;2023-11-21T03:26:26;65791.28;;;5.93;100.00
37132;BME280;23035;50.032;21.978;2023-11-21T03:31:30;65848.56;;;6.50;100.00
37132;BME280;23035;50.032;21.978;2023-11-21T03:36:34;65821.75;;;6.22;100.00
37132;BME280;23035;50.032;21.978;2023-11-21T03:41:42;65885.91;;;6.83;100.00
37132;BME280;23035;50.032;21.978;2023-11-21T03:46:46;65873.25;;;6.76;100.00
37132;BME280;23035;50.032;21.978;2023-11-21T03:51:51;65784.41;;;5.89;100.00
37132;BME280;23035;50.032;21.978;2023-11-21T03:56:56;65804.66;;;6.06;100.00
37132;BME280;23035;50.032;21.978;2023-11-21T04:02:01;65800.38;;;6.02;100.00
37132;BME280;23035;50.032;21.978;2023-11-21T04:07:05;65767.25;;;5.70;100.00
37132;BME280;23035;50.032;21.978;2023-11-21T04:12:11;65822.28;;;6.23;100.00
37132;BME280;23035;50.032;21.978;2023-11-21T04:17:18;65807.31;;;6.09;100.00
37132;BME280;23035;50.032;21.978;2023-11-21T04:22:23;65803.59;;;6.05;100.00
37132;BME280;23035;50.032;21.978;2023-11-21T04:27:29;65854.28;;;6.51;100.00
37132;BME280;23035;50.032;21.978;2023-11-21T04:32:33;65838.84;;;6.39;100.00
37132;BME280;23035;50.032;21.978;2023-11-21T04:37:38;65828.06;;;6.26;100.00
37132;BME280;23035;50.032;21.978;2023-11-21T04:42:44;65791.38;;;5.96;100.00
37132;BME280;23035;50.032;21.978;2023-11-21T04:47:49;65815.09;;;6.23;100.00
37132;BME280;23035;50.032;21.978;2023-11-21T04:52:55;65785.91;;;5.88;100.00
37132;BME280;23035;50.032;21.978;2023-11-21T04:58:01;65814.81;;;6.16;100.00
37132;BME280;23035;50.032;21.978;2023-11-21T05:03:07;65827.19;;;6.30;100.00
37132;BME280;23035;50.032;21.978;2023-11-21T05:08:12;65761.97;;;5.68;100.00
37132;BME280;23035;50.032;21.978;2023-11-21T05:13:17;65829.78;;;6.30;100.00
37132;BME280;23035;50.032;21.978;2023-11-21T05:18:23;65820.56;;;6.19;100.00
37132;BME280;23035;50.032;21.978;2023-11-21T05:23:30;65794.06;;;5.98;100.00
37132;BME280;23035;50.032;21.978;2023-11-21T05:28:36;65817.13;;;6.23;100.00
37132;BME280;23035;50.032;21.978;2023-11-21T05:33:41;65788.72;;;5.93;100.00
37132;BME280;23035;50.032;21.978;2023-11-21T05:38:45;65832.00;;;6.35;100.00
37132;BME280;23035;50.032;21.978;2023-11-21T05:43:51;65857.13;;;6.58;100.00
37132;BME280;23035;50.032;21.978;2023-11-21T05:48:57;65843.03;;;6.40;100.00
37132;BME280;23035;50.032;21.978;2023-11-21T05:54:01;65826.13;;;6.29;100.00
37132;BME280;23035;50.032;21.978;2023-11-21T05:59:07;65827.72;;;6.30;100.00
37132;BME280;23035;50.032;21.978;2023-11-21T06:04:12;65874.22;;;6.75;100.00
37132;BME280;23035;50.032;21.978;2023-11-21T06:09:17;65843.41;;;6.50;100.00
37132;BME280;23035;50.032;21.978;2023-11-21T06:14:23;65846.41;;;6.48;100.00
37132;BME280;23035;50.032;21.978;2023-11-21T06:19:28;65812.22;;;6.16;100.00
37132;BME280;23035;50.032;21.978;2023-11-21T06:24:32;65869.97;;;6.71;100.00
37132;BME280;23035;50.032;21.978;2023-11-21T06:29:38;65818.66;;;6.22;100.00
37132;BME280;23035;50.032;21.978;2023-11-21T06:34:45;65819.72;;;6.23;100.00
37132;BME280;23035;50.032;21.978;2023-11-21T06:39:49;65793.63;;;6.00;100.00
37132;BME280;23035;50.032;21.978;2023-11-21T06:44:57;65844.09;;;6.41;100.00
37132;BME280;23035;50.032;21.978;2023-11-21T06:50:02;65858.09;;;6.57;100.00
37132;BME280;23035;50.032;21.978;2023-11-21T06:55:08;65871.91;;;6.68;100.00
37132;BME280;23035;50.032;21.978;2023-11-21T07:00:15;65892.84;;;6.90;100.00
37132;BME280;23035;50.032;21.978;2023-11-21T07:05:22;65849.19;;;6.53;100.00
37132;BME280;23035;50.032;21.978;2023-11-21T07:10:26;65862.47;;;6.64;100.00
37132;BME280;23035;50.032;21.978;2023-11-21T07:15:32;65873.16;;;6.74;100.00
37132;BME280;23035;50.032;21.978;2023-11-21T07:20:37;65905.31;;;7.07;100.00
37132;BME280;23035;50.032;21.978;2023-11-21T07:25:41;65883.84;;;6.84;100.00
37132;BME280;23035;50.032;21.978;2023-11-21T07:30:49;65878.50;;;6.79;100.00
37132;BME280;23035;50.032;21.978;2023-11-21T07:35:53;65885.81;;;6.81;100.00
37132;BME280;23035;50.032;21.978;2023-11-21T07:40:57;65926.72;;;7.27;100.00
37132;BME280;23035;50.032;21.978;2023-11-21T07:46:05;65925.56;;;7.24;100.00
37132;BME280;23035;50.032;21.978;2023-11-21T07:51:10;65938.94;;;7.36;100.00
37132;BME280;23035;50.032;21.978;2023-11-21T07:56:17;65984.41;;;7.80;100.00
37132;BME280;23035;50.032;21.978;2023-11-21T08:01:23;65972.91;;;7.61;100.00
37132;BME280;23035;50.032;21.978;2023-11-21T08:06:28;66005.72;;;7.97;100.00
37132;BME280;23035;50.032;21.978;2023-11-21T08:11:32;66049.28;;;8.44;100.00
37132;BME280;23035;50.032;21.978;2023-11-21T08:17:18;65889.09;;;6.86;100.00
37132;BME280;23035;50.032;21.978;2023-11-21T08:28:50;65926.09;;;7.24;100.00
37132;BME280;23035;50.032;21.978;2023-11-21T08:34:06;65966.66;;;7.60;100.00
37132;BME280;23035;50.032;21.978;2023-11-21T08:39:26;65925.03;;;7.23;100.00
37132;BME280;23035;50.032;21.978;2023-11-21T08:44:31;65989.75;;;7.85;100.00
37132;BME280;23035;50.032;21.978;2023-11-21T08:49:37;65979.06;;;7.74;100.00
37132;BME280;23035;50.032;21.978;2023-11-21T08:54:43;66001.63;;;7.98;100.00
37132;BME280;23035;50.032;21.978;2023-11-21T08:59:59;65981.63;;;7.74;100.00
37132;BME280;23035;50.032;21.978;2023-11-21T09:12:08;65977.28;;;7.68;100.00
37132;BME280;23035;50.032;21.978;2023-11-21T09:17:15;65974.16;;;7.67;100.00
37132;BME280;23035;50.032;21.978;2023-11-21T09:22:21;65942.50;;;7.35;100.00
37132;BME280;23035;50.032;21.978;2023-11-21T09:27:28;65968.81;;;7.62;100.00
37132;BME280;23035;50.032;21.978;2023-11-21T09:32:32;65937.78;;;7.33;100.00
37132;BME280;23035;50.032;21.978;2023-11-21T09:37:39;65952.75;;;7.47;100.00
37132;BME280;23035;50.032;21.978;2023-11-21T09:42:50;65969.25;;;7.60;100.00
37132;BME280;23035;50.032;21.978;2023-11-21T09:47:58;65941.63;;;7.39;100.00
37132;BME280;23035;50.032;21.978;2023-11-21T09:53:11;65940.97;;;7.36;100.00
37132;BME280;23035;50.032;21.978;2023-11-21T09:58:18;65924.50;;;7.23;100.00
37132;BME280;23035;50.032;21.978;2023-11-21T10:03:24;65919.31;;;7.23;100.00
37132;BME280;23035;50.032;21.978;2023-11-21T10:08:32;65913.59;;;7.07;100.00
37132;BME280;23035;50.032;21.978;2023-11-21T10:13:53;65885.53;;;6.88;100.00
37132;BME280;23035;50.032;21.978;2023-11-21T10:19:00;65875.28;;;6.76;100.00
37132;BME280;23035;50.032;21.978;2023-11-21T10:24:15;65765.63;;;5.69;100.00
37132;BME280;23035;50.032;21.978;2023-11-21T10:29:21;65757.19;;;5.63;100.00
37132;BME280;23035;50.032;21.978;2023-11-21T10:34:26;65819.63;;;6.20;100.00
37132;BME280;23035;50.032;21.978;2023-11-21T10:39:32;65753.44;;;5.60;100.00
37132;BME280;23035;50.032;21.978;2023-11-21T10:44:37;65743.38;;;5.53;100.00
37132;BME280;23035;50.032;21.978;2023-11-21T10:49:42;65727.97;;;5.40;100.00
37132;BME280;23035;50.032;21.978;2023-11-21T10:54:48;65774.25;;;5.80;100.00
37132;BME280;23035;50.032;21.978;2023-11-21T10:59:53;65792.38;;;5.94;100.00
37132;BME280;23035;50.032;21.978;2023-11-21T11:04:59;65740.63;;;5.47;100.00
37132;BME280;23035;50.032;21.978;2023-11-21T11:10:08;65688.81;;;4.98;100.00
37132;BME280;23035;50.032;21.978;2023-11-21T11:15:17;65704.75;;;5.11;100.00
37132;BME280;23035;50.032;21.978;2023-11-21T11:20:25;65744.78;;;5.49;100.00
37132;BME280;23035;50.032;21.978;2023-11-21T11:25:46;65728.03;;;5.28;100.00
37132;BME280;23035;50.032;21.978;2023-11-21T11:31:05;65753.34;;;5.57;100.00
37132;BME280;23035;50.032;21.978;2023-11-21T11:36:49;65747.03;;;5.54;100.00
37132;BME280;23035;50.032;21.978;2023-11-21T11:42:07;65747.03;;;5.54;100.00
37132;BME280;23035;50.032;21.978;2023-11-21T11:47:16;65733.69;;;5.41;100.00
37132;BME280;23035;50.032;21.978;2023-11-21T11:52:35;65739.00;;;5.46;100.00
37132;BME280;23035;50.032;21.978;2023-11-21T11:57:51;65774.38;;;5.82;100.00
37132;BME280;23035;50.032;21.978;2023-11-21T12:02:58;65767.88;;;5.73;100.00
37132;BME280;23035;50.032;21.978;2023-11-21T12:08:08;65736.34;;;5.43;100.00
37132;BME280;23035;50.032;21.978;2023-11-21T12:13:15;65712.84;;;5.21;100.00
37132;BME280;23035;50.032;21.978;2023-11-21T12:18:20;65765.19;;;5.71;100.00
37132;BME280;23035;50.032;21.978;2023-11-21T12:23:31;65818.44;;;6.17;100.00
37132;BME280;23035;50.032;21.978;2023-11-21T12:28:51;65727.19;;;5.32;100.00
37132;BME280;23035;50.032;21.978;2023-11-21T12:33:59;65770.53;;;5.76;100.00
37132;BME280;23035;50.032;21.978;2023-11-21T12:39:06;65806.88;;;6.11;100.00
37132;BME280;23035;50.032;21.978;2023-11-21T12:44:15;65838.50;;;6.43;100.00
37132;BME280;23035;50.032;21.978;2023-11-21T12:49:22;65910.06;;;7.09;100.00
37132;BME280;23035;50.032;21.978;2023-11-21T12:54:27;65818.97;;;6.17;100.00
37132;BME280;23035;50.032;21.978;2023-11-21T12:59:34;65749.69;;;5.56;100.00
37132;BME280;23035;50.032;21.978;2023-11-21T13:04:39;65718.09;;;5.24;100.00
37132;BME280;23035;50.032;21.978;2023-11-21T13:09:52;65728.25;;;5.33;100.00
37132;BME280;23035;50.032;21.978;2023-11-21T13:15:03;65676.47;;;4.84;100.00
37132;BME280;23035;50.032;21.978;2023-11-21T13:20:10;65641.34;;;4.53;100.00
37132;BME280;23035;50.032;21.978;2023-11-21T13:25:18;65632.69;;;4.42;100.00
37132;BME280;23035;50.032;21.978;2023-11-21T13:30:25;65685.41;;;4.90;100.00
37132;BME280;23035;50.032;21.978;2023-11-21T13:35:31;65605.03;;;4.18;100.00
37132;BME280;23035;50.032;21.978;2023-11-21T13:40:41;65595.44;;;4.09;100.00
37132;BME280;23035;50.032;21.978;2023-11-21T13:45:49;65597.03;;;4.11;100.00
37132;BME280;23035;50.032;21.978;2023-11-21T13:51:01;65603.97;;;4.17;100.00
37132;BME280;23035;50.032;21.978;2023-11-21T13:56:16;65618.28;;;4.28;100.00
37132;BME280;23035;50.032;21.978;2023-11-21T14:01:27;65588.84;;;3.98;100.00
37132;BME280;23035;50.032;21.978;2023-11-21T14:06:46;65576.13;;;3.88;100.00
37132;BME280;23035;50.032;21.978;2023-11-21T14:11:54;65569.72;;;3.82;100.00
37132;BME280;23035;50.032;21.978;2023-11-21T14:17:01;65534.00;;;3.48;100.00
37132;BME280;23035;50.032;21.978;2023-11-21T14:22:22;65586.06;;;3.93;100.00
37132;BME280;23035;50.032;21.978;2023-11-21T14:27:29;65570.38;;;3.85;100.00
37132;BME280;23035;50.032;21.978;2023-11-21T14:32:40;65551.69;;;3.67;100.00
37132;BME280;23035;50.032;21.978;2023-11-21T14:37:49;65700.13;;;5.11;100.00
37132;BME280;23035;50.032;21.978;2023-11-21T14:43:04;65613.75;;;4.31;100.00
37132;BME280;23035;50.032;21.978;2023-11-21T14:48:14;65627.34;;;4.37;100.00
37132;BME280;23035;50.032;21.978;2023-11-21T14:53:32;65651.47;;;4.63;100.00
37132;BME280;23035;50.032;21.978;2023-11-21T14:58:57;65664.81;;;4.75;100.00
37132;BME280;23035;50.032;21.978;2023-11-21T15:04:17;65616.16;;;4.26;100.00
37132;BME280;23035;50.032;21.978;2023-11-21T15:09:38;65699.06;;;5.10;100.00
37132;BME280;23035;50.032;21.978;2023-11-21T15:14:47;65670.78;;;4.83;100.00
37132;BME280;23035;50.032;21.978;2023-11-21T15:19:56;65739.56;;;5.46;100.00
37132;BME280;23035;50.032;21.978;2023-11-21T15:25:01;65678.06;;;4.85;100.00
37132;BME280;23035;50.032;21.978;2023-11-21T15:30:13;65682.44;;;4.92;100.00
37132;BME280;23035;50.032;21.978;2023-11-21T15:35:29;65688.28;;;4.98;100.00
37132;BME280;23035;50.032;21.978;2023-11-21T15:40:35;65720.22;;;5.26;100.00
37132;BME280;23035;50.032;21.978;2023-11-21T15:45:48;65724.59;;;5.32;100.00
37132;BME280;23035;50.032;21.978;2023-11-21T15:50:54;65713.41;;;5.22;100.00
37132;BME280;23035;50.032;21.978;2023-11-21T15:56:03;65732.50;;;5.37;100.00
37132;BME280;23035;50.032;21.978;2023-11-21T16:01:11;65689.78;;;4.97;100.00
37132;BME280;23035;50.032;21.978;2023-11-21T16:06:17;65714.78;;;5.18;100.00
37132;BME280;23035;50.032;21.978;2023-11-21T16:11:22;65659.28;;;4.65;100.00
37132;BME280;23035;50.032;21.978;2023-11-21T16:16:27;65581.91;;;3.91;100.00
37132;BME280;23035;50.032;21.978;2023-11-21T16:21:33;65604.41;;;4.15;100.00
37132;BME280;23035;50.032;21.978;2023-11-21T16:26:42;65631.28;;;4.46;100.00
37132;BME280;23035;50.032;21.978;2023-11-21T16:31:46;65656.25;;;4.67;100.00
37132;BME280;23035;50.032;21.978;2023-11-21T16:36:55;65613.56;;;4.26;100.00
37132;BME280;23035;50.032;21.978;2023-11-21T16:42:00;65548.41;;;3.62;100.00
37132;BME280;23035;50.032;21.978;2023-11-21T16:47:05;65557.91;;;3.68;100.00
37132;BME280;23035;50.032;21.978;2023-11-21T16:52:11;65594.38;;;4.08;100.00
37132;BME280;23035;50.032;21.978;2023-11-21T16:57:16;65684.34;;;4.89;100.00
37132;BME280;23035;50.032;21.978;2023-11-21T17:02:21;65673.34;;;4.83;100.00
37132;BME280;23035;50.032;21.978;2023-11-21T17:07:29;65573.47;;;3.86;100.00
37132;BME280;23035;50.032;21.978;2023-11-21T17:12:34;65561.84;;;3.77;100.00
37132;BME280;23035;50.032;21.978;2023-11-21T17:17:39;65596.84;;;4.06;100.00
37132;BME280;23035;50.032;21.978;2023-11-21T17:22:45;65574.53;;;3.87;100.00
37132;BME280;23035;50.032;21.978;2023-11-21T17:27:51;65616.69;;;4.27;100.00
37132;BME280;23035;50.032;21.978;2023-11-21T17:32:56;65640.25;;;4.52;100.00
37132;BME280;23035;50.032;21.978;2023-11-21T17:38:02;65729.75;;;5.32;100.00
37132;BME280;23035;50.032;21.978;2023-11-21T17:43:08;65683.38;;;4.90;100.00
37132;BME280;23035;50.032;21.978;2023-11-21T17:48:13;65733.03;;;5.38;100.00
37132;BME280;23035;50.032;21.978;2023-11-21T17:53:20;65775.59;;;5.73;100.00
37132;BME280;23035;50.032;21.978;2023-11-21T17:58:24;65704.31;;;5.13;100.00
37132;BME280;23035;50.032;21.978;2023-11-21T18:03:29;65670.78;;;4.83;100.00
37132;BME280;23035;50.032;21.978;2023-11-21T18:08:36;65662.47;;;4.68;100.00
37132;BME280;23035;50.032;21.978;2023-11-21T18:13:43;65590.00;;;4.01;100.00
37132;BME280;23035;50.032;21.978;2023-11-21T18:18:52;65579.31;;;3.91;100.00
37132;BME280;23035;50.032;21.978;2023-11-21T18:23:59;65512.78;;;3.30;100.00
37132;BME280;23035;50.032;21.978;2023-11-21T18:29:18;65509.91;;;3.23;100.00
37132;BME280;23035;50.032;21.978;2023-11-21T18:34:36;65478.13;;;2.97;100.00
37132;BME280;23035;50.032;21.978;2023-11-21T18:39:43;65431.78;;;2.53;100.00
37132;BME280;23035;50.032;21.978;2023-11-21T18:44:51;65521.31;;;3.38;100.00
37132;BME280;23035;50.032;21.978;2023-11-21T18:50:04;65499.38;;;3.15;100.00
37132;BME280;23035;50.032;21.978;2023-11-21T18:55:14;65479.97;;;2.92;100.00
37132;BME280;23035;50.032;21.978;2023-11-21T19:00:18;65483.91;;;3.00;100.00
37132;BME280;23035;50.032;21.978;2023-11-21T19:05:23;65465.34;;;2.85;100.00
37132;BME280;23035;50.032;21.978;2023-11-21T19:10:30;65461.81;;;2.86;100.00
37132;BME280;23035;50.032;21.978;2023-11-21T19:15:35;65408.25;;;2.28;100.00
37132;BME280;23035;50.032;21.978;2023-11-21T19:20:47;65420.06;;;2.42;100.00
37132;BME280;23035;50.032;21.978;2023-11-21T19:25:56;65414.00;;;2.31;100.00
37132;BME280;23035;50.032;21.978;2023-11-21T19:31:01;65357.66;;;1.80;100.00
37132;BME280;23035;50.032;21.978;2023-11-21T19:36:07;65378.84;;;1.97;100.00
37132;BME280;23035;50.032;21.978;2023-11-21T19:41:21;65362.88;;;1.82;100.00
37132;BME280;23035;50.032;21.978;2023-11-21T19:46:33;65367.66;;;1.87;100.00
37132;BME280;23035;50.032;21.978;2023-11-21T19:52:17;65356.16;;;1.81;100.00
37132;BME280;23035;50.032;21.978;2023-11-21T19:57:23;65355.41;;;1.75;100.00
37132;BME280;23035;50.032;21.978;2023-11-21T20:02:27;65411.53;;;2.34;100.00
37132;BME280;23035;50.032;21.978;2023-11-21T20:07:32;65341.13;;;1.64;100.00
37132;BME280;23035;50.032;21.978;2023-11-21T20:12:38;65323.56;;;1.47;100.00
37132;BME280;23035;50.032;21.978;2023-11-21T20:17:43;65315.59;;;1.39;100.00
37132;BME280;23035;50.032;21.978;2023-11-21T20:22:52;65298.13;;;1.25;100.00
37132;BME280;23035;50.032;21.978;2023-11-21T20:27:59;65312.81;;;1.34;100.00
37132;BME280;23035;50.032;21.978;2023-11-21T20:33:04;65308.56;;;1.30;100.00
37132;BME280;23035;50.032;21.978;2023-11-21T20:38:09;65265.03;;;0.91;100.00
37132;BME280;23035;50.032;21.978;2023-11-21T20:43:16;65296.34;;;1.19;100.00
37132;BME280;23035;50.032;21.978;2023-11-21T20:48:20;65301.22;;;1.26;100.00
37132;BME280;23035;50.032;21.978;2023-11-21T20:53:27;65334.66;;;1.55;100.00
37132;BME280;23035;50.032;21.978;2023-11-21T20:58:32;65324.00;;;1.45;100.00
37132;BME280;23035;50.032;21.978;2023-11-21T21:03:37;65348.16;;;1.73;100.00
37132;BME280;23035;50.032;21.978;2023-11-21T21:08:43;65292.59;;;1.15;100.00
37132;BME280;23035;50.032;21.978;2023-11-21T21:13:49;65241.09;;;0.68;100.00
37132;BME280;23035;50.032;21.978;2023-11-21T21:18:56;65369.16;;;1.86;100.00
37132;BME280;23035;50.032;21.978;2023-11-21T21:24:02;65365.53;;;1.85;100.00
37132;BME280;23035;50.032;21.978;2023-11-21T21:29:08;65311.84;;;1.36;100.00
37132;BME280;23035;50.032;21.978;2023-11-21T21:34:13;65274.41;;;0.95;100.00
37132;BME280;23035;50.032;21.978;2023-11-21T21:39:19;65284.72;;;1.10;100.00
37132;BME280;23035;50.032;21.978;2023-11-21T21:44:26;65260.47;;;0.79;100.00
37132;BME280;23035;50.032;21.978;2023-11-21T21:49:30;65244.72;;;0.69;100.00
37132;BME280;23035;50.032;21.978;2023-11-21T21:54:38;65238.34;;;0.63;100.00
37132;BME280;23035;50.032;21.978;2023-11-21T21:59:44;65273.03;;;0.99;100.00
37132;BME280;23035;50.032;21.978;2023-11-21T22:04:52;65193.88;;;0.25;100.00
37132;BME280;23035;50.032;21.978;2023-11-21T22:09:56;65206.63;;;0.38;100.00
37132;BME280;23035;50.032;21.978;2023-11-21T22:15:04;65206.00;;;0.35;100.00
37132;BME280;23035;50.032;21.978;2023-11-21T22:20:10;65202.59;;;0.26;100.00
37132;BME280;23035;50.032;21.978;2023-11-21T22:25:15;65150.19;;;-0.19;100.00
37132;BME280;23035;50.032;21.978;2023-11-21T22:30:21;65123.19;;;-0.42;100.00
37132;BME280;23035;50.032;21.978;2023-11-21T22:35:27;65213.44;;;0.42;100.00
37132;BME280;23035;50.032;21.978;2023-11-21T22:40:36;65193.88;;;0.25;100.00
37132;BME280;23035;50.032;21.978;2023-11-21T22:46:11;65220.25;;;0.46;100.00
37132;BME280;23035;50.032;21.978;2023-11-21T22:51:19;65165.38;;;-0.09;100.00
37132;BME280;23035;50.032;21.978;2023-11-21T22:56:26;65172.41;;;0.00;100.00
37132;BME280;23035;50.032;21.978;2023-11-21T23:01:36;65151.88;;;-0.15;100.00
37132;BME280;23035;50.032;21.978;2023-11-21T23:06:52;65150.06;;;-0.21;100.00
37132;BME280;23035;50.032;21.978;2023-11-21T23:18:20;65275.59;;;0.99;100.00
37132;BME280;23035;50.032;21.978;2023-11-21T23:23:51;65189.31;;;0.14;100.00
37132;BME280;23035;50.032;21.978;2023-11-21T23:28:56;65188.56;;;0.20;100.00
37132;BME280;23035;50.032;21.978;2023-11-21T23:34:02;65137.41;;;-0.31;100.00
37132;BME280;23035;50.032;21.978;2023-11-21T23:39:07;65152.31;;;-0.17;100.00
37132;BME280;23035;50.032;21.978;2023-11-21T23:44:12;65157.50;;;-0.14;100.00
37132;BME280;23035;50.032;21.978;2023-11-21T23:49:21;65145.81;;;-0.25;100.00
37132;BME280;23035;50.032;21.978;2023-11-21T23:54:25;65129.88;;;-0.41;100.00
37132;BME280;23035;50.032;21.978;2023-11-21T23:59:31;65104.81;;;-0.67;100.00
